createdAt,value
2022-08-04T00:00:12.619Z,0.60
2022-08-04T00:03:00.697Z,0.40
2022-08-04T00:05:30.011Z,0.52
2022-08-04T00:08:15.298Z,0.60
2022-08-04T00:10:48.630Z,0.70
2022-08-04T00:13:17.791Z,0.43
2022-08-04T00:15:45.532Z,0.50
2022-08-04T00:18:17.562Z,0.43
2022-08-04T00:20:45.729Z,0.40
2022-08-04T00:23:13.513Z,0.63
2022-08-04T00:25:41.003Z,0.43
2022-08-04T00:28:07.891Z,0.38
2022-08-04T00:30:34.930Z,0.43
2022-08-04T00:33:02.634Z,0.50
2022-08-04T00:35:29.845Z,0.70
2022-08-04T00:37:57.364Z,0.63
2022-08-04T00:40:59.905Z,0.73
2022-08-04T00:43:34.306Z,0.77
2022-08-04T00:46:16.618Z,0.90
2022-08-04T00:49:02.907Z,0.90
2022-08-04T00:52:32.674Z,0.83
2022-08-04T00:54:52.241Z,0.60
2022-08-04T00:57:37.979Z,0.80
2022-08-04T01:00:17.279Z,0.70
2022-08-04T01:03:24.129Z,0.63
2022-08-04T01:06:03.460Z,0.60
2022-08-04T01:08:59.031Z,0.70
2022-08-04T01:11:57.277Z,0.80
2022-08-04T01:14:43.642Z,0.80
2022-08-04T01:17:19.304Z,0.50
2022-08-04T01:19:51.961Z,0.70
2022-08-04T01:22:38.716Z,0.70
2022-08-04T01:25:50.225Z,0.70
2022-08-04T01:28:19.954Z,0.80
2022-08-04T01:30:54.982Z,0.60
2022-08-04T01:33:23.536Z,0.60
2022-08-04T01:35:55.039Z,0.40
2022-08-04T01:38:36.801Z,0.60
2022-08-04T01:41:06.624Z,0.40
2022-08-04T01:43:36.074Z,0.50
2022-08-04T01:46:05.077Z,0.50
2022-08-04T01:48:32.987Z,0.60
2022-08-04T01:51:08.462Z,0.40
2022-08-04T01:53:42.398Z,0.52
2022-08-04T01:56:11.534Z,0.50
2022-08-04T01:58:40.599Z,0.67
2022-08-04T02:01:09.252Z,0.90
2022-08-04T02:04:19.751Z,0.88
2022-08-04T02:06:45.767Z,0.50
2022-08-04T02:09:54.094Z,0.65
2022-08-04T02:12:24.580Z,0.80
2022-08-04T02:14:59.669Z,0.75
2022-08-04T02:17:43.900Z,0.88
2022-08-04T02:20:26.219Z,0.60
2022-08-04T02:23:01.961Z,0.80
2022-08-04T02:25:32.759Z,1.03
2022-08-04T02:28:26.892Z,0.70
2022-08-04T02:31:12.485Z,0.50
2022-08-04T02:33:51.497Z,0.95
2022-08-04T02:36:30.720Z,0.70
2022-08-04T02:39:02.202Z,0.60
2022-08-04T02:41:31.543Z,0.55
2022-08-04T02:44:02.894Z,0.60
2022-08-04T02:46:32.447Z,0.70
2022-08-04T02:49:02.744Z,0.57
2022-08-04T02:51:33.436Z,0.70
2022-08-04T02:54:02.934Z,0.60
2022-08-04T02:56:32.375Z,0.38
2022-08-04T02:59:08.318Z,0.47
2022-08-04T03:01:36.131Z,0.70
2022-08-04T03:04:25.002Z,0.50
2022-08-04T03:07:07.116Z,0.50
2022-08-04T03:10:14.996Z,0.60
2022-08-04T03:13:12.299Z,0.57
2022-08-04T03:16:32.634Z,0.70
2022-08-04T03:19:25.888Z,0.70
2022-08-04T03:22:10.891Z,0.60
2022-08-04T03:24:40.588Z,0.50
2022-08-04T03:27:11.858Z,0.70
2022-08-04T03:29:48.307Z,0.80
2022-08-04T03:32:30.157Z,0.63
2022-08-04T03:35:49.698Z,0.70
2022-08-04T03:38:44.293Z,0.60
2022-08-04T03:41:55.148Z,0.50
2022-08-04T03:45:23.646Z,0.70
2022-08-04T03:48:14.522Z,1.00
2022-08-04T03:51:00.944Z,0.70
2022-08-04T03:53:46.832Z,0.75
2022-08-04T03:56:22.693Z,0.77
2022-08-04T03:59:07.474Z,0.82
2022-08-04T04:02:02.225Z,1.00
2022-08-04T04:04:51.293Z,1.13
2022-08-04T04:07:36.740Z,1.20
2022-08-04T04:10:11.815Z,1.02
2022-08-04T04:12:56.613Z,1.40
2022-08-04T04:15:56.235Z,1.30
2022-08-04T04:19:11.016Z,1.67
2022-08-04T04:22:06.648Z,1.52
2022-08-04T04:24:41.235Z,1.52
2022-08-04T04:27:34.216Z,1.77
2022-08-04T04:30:24.286Z,1.33
2022-08-04T04:32:59.834Z,1.00
2022-08-04T04:35:38.557Z,1.10
2022-08-04T04:38:44.459Z,1.30
2022-08-04T04:41:20.090Z,1.25
2022-08-04T04:44:30.216Z,1.00
2022-08-04T04:47:18.387Z,1.10
2022-08-04T04:50:28.510Z,1.20
2022-08-04T04:53:12.200Z,1.20
2022-08-04T04:55:51.692Z,1.02
2022-08-04T04:58:20.992Z,1.05
2022-08-04T05:00:47.699Z,1.05
2022-08-04T05:03:17.334Z,0.98
2022-08-04T05:05:57.729Z,0.98
2022-08-04T05:08:42.969Z,1.35
2022-08-04T05:11:29.993Z,1.35
2022-08-04T05:14:41.033Z,0.93
2022-08-04T05:17:17.369Z,1.42
2022-08-04T05:20:01.053Z,1.23
2022-08-04T05:22:33.379Z,1.30
2022-08-04T05:25:08.781Z,1.60
2022-08-04T05:27:40.517Z,1.60
2022-08-04T05:30:09.033Z,1.50
2022-08-04T05:32:48.420Z,1.90
2022-08-04T05:35:56.307Z,1.20
2022-08-04T05:38:12.243Z,1.40
2022-08-04T05:40:40.215Z,1.38
2022-08-04T05:43:07.680Z,1.50
2022-08-04T05:45:38.877Z,1.70
2022-08-04T05:48:09.210Z,1.70
2022-08-04T05:50:37.628Z,1.60
2022-08-04T05:53:05.879Z,1.55
2022-08-04T05:55:58.623Z,1.70
2022-08-04T05:58:21.505Z,1.65
2022-08-04T06:00:52.512Z,1.60
2022-08-04T06:03:22.879Z,2.10
2022-08-04T06:05:52.048Z,1.90
2022-08-04T06:08:18.952Z,1.98
2022-08-04T06:10:48.350Z,1.80
2022-08-04T06:13:46.774Z,1.40
2022-08-04T06:16:08.658Z,1.40
2022-08-04T06:20:03.830Z,1.80
2022-08-04T06:21:39.331Z,1.50
2022-08-04T06:24:10.231Z,1.42
2022-08-04T06:26:38.410Z,1.60
2022-08-04T06:29:06.268Z,1.40
2022-08-04T06:32:30.011Z,1.08
2022-08-04T06:34:21.574Z,1.50
2022-08-04T06:36:49.145Z,1.30
2022-08-04T06:39:16.754Z,1.30
2022-08-04T06:42:14.798Z,1.40
2022-08-04T06:44:32.965Z,1.33
2022-08-04T06:47:01.966Z,1.40
2022-08-04T06:49:32.571Z,1.35
2022-08-04T06:52:20.507Z,1.35
2022-08-04T06:54:53.948Z,1.50
2022-08-04T06:57:27.449Z,1.60
2022-08-04T06:59:59.360Z,1.52
2022-08-04T07:02:30.138Z,1.70
2022-08-04T07:04:57.738Z,2.00
2022-08-04T07:07:36.854Z,1.80
2022-08-04T07:10:14.384Z,1.92
2022-08-04T07:12:50.158Z,1.63
2022-08-04T07:15:23.172Z,1.80
2022-08-04T07:17:52.655Z,1.75
2022-08-04T07:20:34.707Z,1.63
2022-08-04T07:23:03.634Z,2.08
2022-08-04T07:26:10.978Z,1.90
2022-08-04T07:28:18.403Z,1.88
2022-08-04T07:30:47.324Z,2.00
2022-08-04T07:33:18.194Z,2.00
2022-08-04T07:36:04.518Z,2.08
2022-08-04T07:38:37.613Z,1.90
2022-08-04T07:44:03.200Z,2.15
2022-08-04T07:46:31.215Z,1.83
2022-08-04T07:49:03.567Z,2.10
2022-08-04T07:51:31.456Z,1.80
2022-08-04T07:53:59.637Z,1.48
2022-08-04T07:56:27.358Z,1.55
2022-08-04T07:58:54.891Z,2.00
2022-08-04T08:01:22.784Z,1.60
2022-08-04T08:03:51.028Z,1.40
2022-08-04T08:06:32.678Z,1.65
2022-08-04T08:09:13.070Z,1.40
2022-08-04T08:12:36.578Z,1.63
2022-08-04T08:14:35.466Z,1.70
2022-08-04T08:17:02.943Z,1.50
2022-08-04T08:19:34.047Z,1.35
2022-08-04T08:22:02.121Z,1.33
2022-08-04T08:24:30.873Z,1.50
2022-08-04T08:26:58.707Z,1.40
2022-08-04T08:29:26.862Z,1.50
2022-08-04T08:31:57.632Z,1.58
2022-08-04T08:34:28.045Z,1.73
2022-08-04T08:37:09.704Z,1.43
2022-08-04T08:39:43.325Z,1.60
2022-08-04T08:42:54.834Z,1.70
2022-08-04T08:45:34.619Z,1.50
2022-08-04T08:48:07.240Z,1.73
2022-08-04T08:50:58.955Z,1.77
2022-08-04T08:53:59.707Z,1.50
2022-08-04T08:56:43.178Z,1.30
2022-08-04T08:59:52.363Z,1.42
2022-08-04T09:02:44.665Z,1.83
2022-08-04T09:05:30.419Z,1.37
2022-08-04T09:08:30.918Z,1.60
2022-08-04T09:11:06.729Z,1.48
2022-08-04T09:13:42.672Z,1.45
2022-08-04T09:16:31.392Z,1.50
2022-08-04T09:19:38.500Z,1.90
2022-08-04T09:22:20.653Z,1.52
2022-08-04T09:25:22.033Z,1.58
2022-08-04T09:27:54.742Z,1.50
2022-08-04T09:30:38.574Z,1.65
2022-08-04T09:33:05.385Z,1.60
2022-08-04T09:35:40.416Z,1.90
2022-08-04T09:38:28.623Z,1.70
2022-08-04T09:41:04.684Z,1.58
2022-08-04T09:44:49.761Z,1.85
2022-08-04T09:47:39.346Z,1.60
2022-08-04T09:50:13.274Z,1.80
2022-08-04T09:53:05.948Z,1.80
2022-08-04T09:56:03.547Z,1.80
2022-08-04T09:58:46.552Z,1.88
2022-08-04T10:01:25.601Z,1.70
2022-08-04T10:03:56.411Z,1.60
2022-08-04T10:06:32.053Z,1.45
2022-08-04T10:09:14.104Z,1.70
2022-08-04T10:12:02.088Z,1.77
2022-08-04T10:14:48.026Z,1.97
2022-08-04T10:17:39.036Z,1.60
2022-08-04T10:20:44.897Z,1.10
2022-08-04T10:23:26.318Z,1.67
2022-08-04T10:26:10.917Z,1.67
2022-08-04T10:29:00.732Z,1.60
2022-08-04T10:31:32.830Z,1.63
2022-08-04T10:34:14.132Z,1.63
2022-08-04T10:36:59.473Z,1.58
2022-08-04T10:39:43.355Z,1.50
2022-08-04T10:42:27.502Z,1.77
2022-08-04T10:45:18.393Z,1.48
2022-08-04T10:47:59.187Z,1.42
2022-08-04T10:50:29.868Z,1.60
2022-08-04T10:53:26.866Z,1.80
2022-08-04T10:56:06.633Z,1.77
2022-08-04T10:58:47.792Z,1.55
2022-08-04T11:01:59.472Z,1.60
2022-08-04T11:04:37.373Z,1.73
2022-08-04T11:07:04.609Z,1.85
2022-08-04T11:09:33.699Z,1.80
2022-08-04T11:12:24.311Z,1.48
2022-08-04T11:15:02.113Z,1.98
2022-08-04T11:17:35.657Z,2.03
2022-08-04T11:20:34.498Z,1.73
2022-08-04T11:23:16.975Z,1.97
2022-08-04T11:26:18.834Z,1.50
2022-08-04T11:29:03.866Z,1.90
2022-08-04T11:31:35.453Z,1.85
2022-08-04T11:34:14.484Z,1.98
2022-08-04T11:36:59.496Z,1.83
2022-08-04T11:39:29.557Z,1.65
2022-08-04T11:42:14.962Z,1.90
2022-08-04T11:44:48.311Z,1.50
2022-08-04T11:47:28.698Z,1.83
2022-08-04T11:50:29.063Z,1.90
2022-08-04T11:52:58.000Z,2.00
2022-08-04T11:55:28.052Z,1.92
2022-08-04T11:57:55.384Z,1.88
2022-08-04T12:00:23.464Z,2.10
2022-08-04T12:03:06.575Z,1.63
2022-08-04T12:05:37.348Z,1.88
2022-08-04T12:08:35.418Z,1.75
2022-08-04T12:11:16.314Z,1.80
2022-08-04T12:13:49.018Z,1.75
2022-08-04T12:16:17.398Z,2.03
2022-08-04T12:18:58.140Z,1.90
2022-08-04T12:21:40.209Z,1.70
2022-08-04T12:24:21.929Z,2.00
2022-08-04T12:26:53.612Z,1.80
2022-08-04T12:29:24.023Z,1.90
2022-08-04T12:32:09.329Z,1.90
2022-08-04T12:34:48.482Z,2.08
2022-08-04T12:37:34.669Z,1.80
2022-08-04T12:40:28.306Z,1.73
2022-08-04T12:43:09.032Z,1.90
2022-08-04T12:45:36.614Z,1.85
2022-08-04T12:48:06.385Z,1.73
2022-08-04T12:50:33.742Z,1.92
2022-08-04T12:53:02.645Z,2.30
2022-08-04T12:55:32.982Z,2.17
2022-08-04T12:58:02.942Z,1.95
2022-08-04T13:00:40.747Z,2.10
2022-08-04T13:03:16.862Z,1.80
2022-08-04T13:05:45.175Z,2.00
2022-08-04T13:08:13.724Z,1.90
2022-08-04T13:10:45.010Z,2.15
2022-08-04T13:13:16.206Z,1.80
2022-08-04T13:15:47.207Z,2.28
2022-08-04T13:18:28.898Z,2.22
2022-08-04T13:21:08.347Z,1.80
2022-08-04T13:24:10.212Z,1.98
2022-08-04T13:26:53.658Z,2.25
2022-08-04T13:29:58.745Z,2.42
2022-08-04T13:32:22.569Z,2.47
2022-08-04T13:34:53.894Z,2.40
2022-08-04T13:37:25.341Z,2.38
2022-08-04T13:39:55.649Z,2.10
2022-08-04T13:42:25.419Z,2.33
2022-08-04T13:44:57.139Z,2.22
2022-08-04T13:47:29.444Z,1.93
2022-08-04T13:50:12.638Z,2.10
2022-08-04T13:52:44.075Z,2.00
2022-08-04T13:55:23.036Z,2.15
2022-08-04T13:57:55.137Z,2.45
2022-08-04T14:00:29.646Z,2.37
2022-08-04T14:03:03.597Z,2.70
2022-08-04T14:06:09.578Z,2.50
2022-08-04T14:09:16.601Z,2.25
2022-08-04T14:12:09.636Z,2.08
2022-08-04T14:14:36.602Z,2.40
2022-08-04T14:17:03.310Z,2.28
2022-08-04T14:19:47.652Z,2.40
2022-08-04T14:22:26.928Z,2.30
2022-08-04T14:24:59.055Z,2.55
2022-08-04T14:27:28.781Z,2.40
2022-08-04T14:29:55.731Z,2.30
2022-08-04T14:32:26.016Z,2.03
2022-08-04T14:34:53.382Z,2.22
2022-08-04T14:37:20.973Z,2.45
2022-08-04T14:40:18.745Z,2.20
2022-08-04T14:42:54.495Z,2.35
2022-08-04T14:45:54.664Z,1.95
2022-08-04T14:48:22.964Z,2.25
2022-08-04T14:50:51.015Z,2.65
2022-08-04T14:53:17.899Z,2.10
2022-08-04T14:55:49.905Z,2.35
2022-08-04T14:58:34.496Z,2.30
2022-08-04T15:01:12.063Z,2.72
2022-08-04T15:03:49.908Z,2.55
2022-08-04T15:06:26.436Z,2.60
2022-08-04T15:08:55.683Z,2.47
2022-08-04T15:11:24.177Z,2.75
2022-08-04T15:13:53.088Z,2.85
2022-08-04T15:16:21.887Z,2.70
2022-08-04T15:18:49.495Z,2.40
2022-08-04T15:21:17.498Z,2.47
2022-08-04T15:23:44.555Z,2.70
2022-08-04T15:26:19.216Z,2.50
2022-08-04T15:28:53.232Z,2.60
2022-08-04T15:32:07.000Z,2.60
2022-08-04T15:34:09.856Z,2.60
2022-08-04T15:36:44.915Z,2.40
2022-08-04T15:39:31.583Z,2.40
2022-08-04T15:42:13.128Z,2.78
2022-08-04T15:45:03.025Z,2.40
2022-08-04T15:47:29.945Z,2.38
2022-08-04T15:50:09.092Z,2.17
2022-08-04T15:53:10.429Z,2.65
2022-08-04T15:55:44.267Z,2.17
2022-08-04T15:58:13.194Z,2.33
2022-08-04T16:00:48.830Z,2.40
2022-08-04T16:03:58.583Z,2.45
2022-08-04T16:06:20.418Z,2.45
2022-08-04T16:08:51.967Z,2.35
2022-08-04T16:11:31.338Z,2.13
2022-08-04T16:13:58.661Z,2.67
2022-08-04T16:16:45.201Z,2.40
2022-08-04T16:19:23.071Z,2.42
2022-08-04T16:21:52.316Z,2.13
2022-08-04T16:24:32.523Z,2.13
2022-08-04T16:27:01.406Z,2.20
2022-08-04T16:29:34.007Z,2.05
2022-08-04T16:32:07.704Z,2.33
2022-08-04T16:34:53.741Z,2.35
2022-08-04T16:37:24.888Z,2.20
2022-08-04T16:40:35.131Z,2.45
2022-08-04T16:43:14.195Z,2.50
2022-08-04T16:46:04.034Z,2.47
2022-08-04T16:48:33.250Z,2.30
2022-08-04T16:51:07.325Z,2.57
2022-08-04T16:53:52.190Z,2.60
2022-08-04T16:56:28.968Z,2.70
2022-08-04T16:58:56.390Z,2.80
2022-08-04T17:01:33.207Z,2.63
2022-08-04T17:04:02.565Z,2.60
2022-08-04T17:06:34.954Z,2.75
2022-08-04T17:09:18.950Z,2.25
2022-08-04T17:11:47.515Z,2.60
2022-08-04T17:14:22.464Z,2.30
2022-08-04T17:16:49.254Z,2.13
2022-08-04T17:19:25.113Z,2.40
2022-08-04T17:22:04.267Z,2.00
2022-08-04T17:24:36.231Z,2.50
2022-08-04T17:27:04.237Z,2.05
2022-08-04T17:29:50.715Z,2.20
2022-08-04T17:32:19.905Z,2.22
2022-08-04T17:34:49.223Z,1.83
2022-08-04T17:37:39.330Z,1.80
2022-08-04T17:40:10.378Z,1.80
2022-08-04T17:42:39.096Z,1.77
2022-08-04T17:47:59.448Z,2.15
2022-08-04T17:50:31.016Z,2.10
2022-08-04T17:53:01.689Z,2.10
2022-08-04T17:55:47.025Z,1.93
2022-08-04T17:58:21.137Z,1.63
2022-08-04T18:01:22.688Z,2.00
2022-08-04T18:03:53.330Z,2.15
2022-08-04T18:06:22.493Z,2.00
2022-08-04T18:08:57.600Z,2.20
2022-08-04T18:11:29.699Z,2.28
2022-08-04T18:14:09.647Z,1.58
2022-08-04T18:16:46.214Z,2.03
2022-08-04T18:19:18.901Z,1.92
2022-08-04T18:22:00.027Z,2.00
2022-08-04T18:24:35.005Z,1.88
2022-08-04T18:27:23.444Z,1.70
2022-08-04T18:30:32.521Z,1.80
2022-08-04T18:32:51.252Z,1.90
2022-08-04T18:35:25.281Z,1.80
2022-08-04T18:38:23.653Z,2.00
2022-08-04T18:40:53.283Z,1.73
2022-08-04T18:43:27.990Z,1.50
2022-08-04T18:46:14.480Z,1.92
2022-08-04T18:48:52.121Z,1.80
2022-08-04T18:51:25.236Z,1.80
2022-08-04T18:53:58.852Z,1.45
2022-08-04T18:56:32.425Z,1.92
2022-08-04T18:59:05.214Z,1.95
2022-08-04T19:02:12.554Z,1.90
2022-08-04T19:04:33.974Z,1.80
2022-08-04T19:07:28.699Z,1.85
2022-08-04T19:09:58.568Z,1.60
2022-08-04T19:12:29.662Z,1.77
2022-08-04T19:15:10.732Z,1.77
2022-08-04T19:17:56.944Z,1.80
2022-08-04T19:20:29.427Z,2.10
2022-08-04T19:24:30.464Z,1.90
2022-08-04T19:25:59.018Z,1.80
2022-08-04T19:28:34.382Z,1.77
2022-08-04T19:31:05.822Z,2.20
2022-08-04T19:33:58.793Z,1.50
2022-08-04T19:36:21.161Z,1.40
2022-08-04T19:39:00.828Z,1.80
2022-08-04T19:41:28.873Z,1.60
2022-08-04T19:43:56.653Z,1.60
2022-08-04T19:50:03.210Z,1.60
2022-08-04T19:51:58.061Z,1.73
2022-08-04T19:54:31.122Z,1.60
2022-08-04T19:56:58.952Z,1.63
2022-08-04T19:59:27.423Z,1.83
2022-08-04T20:01:59.681Z,1.63
2022-08-04T20:04:28.180Z,1.80
2022-08-04T20:06:58.344Z,1.67
2022-08-04T20:09:27.174Z,2.08
2022-08-04T20:11:58.184Z,2.05
2022-08-04T20:14:26.618Z,1.90
2022-08-04T20:17:01.633Z,1.90
2022-08-04T20:19:30.591Z,1.77
2022-08-04T20:21:58.682Z,1.92
2022-08-04T20:24:36.946Z,1.70
2022-08-04T20:27:15.424Z,1.90
2022-08-04T20:29:49.735Z,1.90
2022-08-04T20:32:20.176Z,1.93
2022-08-04T20:34:51.507Z,2.10
2022-08-04T20:37:23.990Z,2.10
2022-08-04T20:39:59.263Z,2.03
2022-08-04T20:42:33.805Z,2.03
2022-08-04T20:45:01.672Z,2.00
2022-08-04T20:47:31.144Z,2.08
2022-08-04T20:50:04.013Z,2.10
2022-08-04T20:52:30.955Z,2.53
2022-08-04T20:54:57.977Z,2.30
2022-08-04T20:57:48.753Z,2.20
2022-08-04T21:00:13.409Z,2.50
2022-08-04T21:02:41.473Z,2.80
2022-08-04T21:05:12.170Z,2.25
2022-08-04T21:07:43.851Z,2.50
2022-08-04T21:10:15.756Z,2.30
2022-08-04T21:12:44.019Z,2.60
2022-08-04T21:15:20.478Z,2.65
2022-08-04T21:17:59.074Z,2.63
2022-08-04T21:20:32.345Z,2.50
2022-08-04T21:23:01.932Z,2.70
2022-08-04T21:25:29.785Z,2.25
2022-08-04T21:27:58.476Z,3.00
2022-08-04T21:30:26.767Z,2.67
2022-08-04T21:32:55.251Z,2.65
2022-08-04T21:35:36.889Z,2.40
2022-08-04T21:38:13.958Z,2.67
2022-08-04T21:41:01.479Z,2.50
2022-08-04T21:43:29.445Z,2.60
2022-08-04T21:46:04.749Z,2.78
2022-08-04T21:48:32.994Z,3.03
2022-08-04T21:51:58.807Z,2.83
2022-08-04T21:54:25.765Z,2.95
2022-08-04T21:56:52.550Z,2.60
2022-08-04T21:59:23.343Z,2.88
2022-08-04T22:01:55.230Z,2.50
2022-08-04T22:04:22.105Z,2.35
2022-08-04T22:06:52.394Z,2.67
2022-08-04T22:12:07.392Z,2.40
2022-08-04T22:14:38.459Z,2.53
2022-08-04T22:17:05.370Z,2.72
2022-08-04T22:19:40.621Z,2.45
2022-08-04T22:22:24.613Z,2.88
2022-08-04T22:24:54.110Z,2.90
2022-08-04T22:27:20.952Z,2.40
2022-08-04T22:29:47.810Z,2.63
2022-08-04T22:32:15.838Z,2.75
2022-08-04T22:34:45.658Z,2.50
2022-08-04T22:37:22.446Z,2.78
2022-08-04T22:40:04.663Z,3.03
2022-08-04T22:42:31.701Z,2.50
2022-08-04T22:44:58.535Z,2.70
2022-08-04T22:47:25.929Z,2.50
2022-08-04T22:50:13.404Z,2.60
2022-08-04T22:52:55.758Z,2.57
2022-08-04T22:55:23.384Z,3.08
2022-08-04T22:58:04.645Z,2.30
2022-08-04T23:00:32.525Z,2.60
2022-08-04T23:03:00.420Z,2.55
2022-08-04T23:05:29.189Z,2.30
2022-08-04T23:08:05.097Z,2.58
2022-08-04T23:10:32.997Z,2.55
2022-08-04T23:13:04.101Z,2.50
2022-08-04T23:15:33.729Z,2.50
2022-08-04T23:18:00.974Z,2.60
2022-08-04T23:20:32.355Z,2.50
2022-08-04T23:23:00.689Z,2.60
2022-08-04T23:26:07.120Z,2.60
2022-08-04T23:28:31.588Z,2.33
2022-08-04T23:30:58.339Z,2.70
2022-08-04T23:33:25.239Z,2.70
2022-08-04T23:36:12.213Z,2.63
2022-08-04T23:38:39.244Z,2.35
2022-08-04T23:41:13.892Z,2.33
2022-08-04T23:43:55.383Z,2.23
2022-08-04T23:46:23.371Z,2.35
2022-08-04T23:48:50.142Z,2.45
2022-08-04T23:51:17.027Z,2.70
2022-08-04T23:54:02.427Z,2.90
2022-08-04T23:56:34.887Z,2.83
2022-08-04T23:59:04.045Z,2.35
